sensor_id;sensor_type;location;lat;lon;timestamp;temperature;humidity
3298;DHT22;1661;53.572;10.174;2024-01-25T00:00:32;8.30;83.60
3298;DHT22;1661;53.572;10.174;2024-01-25T00:02:59;8.20;84.00
3298;DHT22;1661;53.572;10.174;2024-01-25T00:05:28;8.20;84.10
3298;DHT22;1661;53.572;10.174;2024-01-25T00:07:55;8.20;84.40
3298;DHT22;1661;53.572;10.174;2024-01-25T00:10:23;8.20;84.10
3298;DHT22;1661;53.572;10.174;2024-01-25T00:12:53;8.20;84.20
3298;DHT22;1661;53.572;10.174;2024-01-25T00:15:26;8.10;84.00
3298;DHT22;1661;53.572;10.174;2024-01-25T00:17:53;8.10;84.40
3298;DHT22;1661;53.572;10.174;2024-01-25T00:20:19;8.10;84.60
3298;DHT22;1661;53.572;10.174;2024-01-25T00:22:46;8.10;84.70
3298;DHT22;1661;53.572;10.174;2024-01-25T00:25:16;8.00;84.60
3298;DHT22;1661;53.572;10.174;2024-01-25T00:27:44;8.00;84.80
3298;DHT22;1661;53.572;10.174;2024-01-25T00:30:13;8.00;85.20
3298;DHT22;1661;53.572;10.174;2024-01-25T00:32:39;7.90;85.10
3298;DHT22;1661;53.572;10.174;2024-01-25T00:35:07;7.90;85.60
3298;DHT22;1661;53.572;10.174;2024-01-25T00:37:35;7.80;85.80
3298;DHT22;1661;53.572;10.174;2024-01-25T00:40:03;7.80;85.60
3298;DHT22;1661;53.572;10.174;2024-01-25T00:42:30;7.90;86.00
3298;DHT22;1661;53.572;10.174;2024-01-25T00:45:03;7.90;85.80
3298;DHT22;1661;53.572;10.174;2024-01-25T00:47:30;8.00;85.30
3298;DHT22;1661;53.572;10.174;2024-01-25T00:49:57;8.00;85.10
3298;DHT22;1661;53.572;10.174;2024-01-25T00:52:24;8.00;85.40
3298;DHT22;1661;53.572;10.174;2024-01-25T00:54:52;7.90;85.30
3298;DHT22;1661;53.572;10.174;2024-01-25T00:57:19;8.00;85.50
3298;DHT22;1661;53.572;10.174;2024-01-25T00:59:46;8.00;85.60
3298;DHT22;1661;53.572;10.174;2024-01-25T01:02:15;8.00;85.60
3298;DHT22;1661;53.572;10.174;2024-01-25T01:04:43;8.00;85.50
3298;DHT22;1661;53.572;10.174;2024-01-25T01:07:10;8.00;85.80
3298;DHT22;1661;53.572;10.174;2024-01-25T01:09:37;7.90;85.90
3298;DHT22;1661;53.572;10.174;2024-01-25T01:12:04;8.00;85.70
3298;DHT22;1661;53.572;10.174;2024-01-25T01:14:30;8.00;85.30
3298;DHT22;1661;53.572;10.174;2024-01-25T01:16:57;7.90;86.10
3298;DHT22;1661;53.572;10.174;2024-01-25T01:19:25;7.90;85.90
3298;DHT22;1661;53.572;10.174;2024-01-25T01:21:52;7.90;85.70
3298;DHT22;1661;53.572;10.174;2024-01-25T01:24:19;8.00;86.30
3298;DHT22;1661;53.572;10.174;2024-01-25T01:26:45;7.90;86.30
3298;DHT22;1661;53.572;10.174;2024-01-25T01:29:14;7.90;85.90
3298;DHT22;1661;53.572;10.174;2024-01-25T01:31:41;7.90;86.00
3298;DHT22;1661;53.572;10.174;2024-01-25T01:34:07;8.00;85.90
3298;DHT22;1661;53.572;10.174;2024-01-25T01:36:35;8.00;85.70
3298;DHT22;1661;53.572;10.174;2024-01-25T01:39:02;7.90;85.40
3298;DHT22;1661;53.572;10.174;2024-01-25T01:41:29;7.90;85.50
3298;DHT22;1661;53.572;10.174;2024-01-25T01:43:56;7.90;86.00
3298;DHT22;1661;53.572;10.174;2024-01-25T01:46:32;7.90;86.10
3298;DHT22;1661;53.572;10.174;2024-01-25T01:48:59;8.00;85.60
3298;DHT22;1661;53.572;10.174;2024-01-25T01:51:26;7.90;85.80
3298;DHT22;1661;53.572;10.174;2024-01-25T01:53:56;7.90;85.80
3298;DHT22;1661;53.572;10.174;2024-01-25T01:56:24;7.90;86.10
3298;DHT22;1661;53.572;10.174;2024-01-25T01:58:52;7.80;86.20
3298;DHT22;1661;53.572;10.174;2024-01-25T02:01:20;7.80;86.30
3298;DHT22;1661;53.572;10.174;2024-01-25T02:03:56;7.80;86.30
3298;DHT22;1661;53.572;10.174;2024-01-25T02:06:23;7.80;86.00
3298;DHT22;1661;53.572;10.174;2024-01-25T02:08:50;7.90;86.40
3298;DHT22;1661;53.572;10.174;2024-01-25T02:11:19;7.90;86.00
3298;DHT22;1661;53.572;10.174;2024-01-25T02:13:46;7.90;86.10
3298;DHT22;1661;53.572;10.174;2024-01-25T02:16:13;7.90;85.90
3298;DHT22;1661;53.572;10.174;2024-01-25T02:18:45;7.90;86.00
3298;DHT22;1661;53.572;10.174;2024-01-25T02:21:12;7.90;85.90
3298;DHT22;1661;53.572;10.174;2024-01-25T02:23:42;7.90;86.30
3298;DHT22;1661;53.572;10.174;2024-01-25T02:26:09;7.90;86.10
3298;DHT22;1661;53.572;10.174;2024-01-25T02:28:36;7.90;86.30
3298;DHT22;1661;53.572;10.174;2024-01-25T02:31:03;7.90;86.40
3298;DHT22;1661;53.572;10.174;2024-01-25T02:33:30;7.90;86.20
3298;DHT22;1661;53.572;10.174;2024-01-25T02:35:56;7.90;86.40
3298;DHT22;1661;53.572;10.174;2024-01-25T02:38:23;7.90;86.50
3298;DHT22;1661;53.572;10.174;2024-01-25T02:40:51;7.90;86.50
3298;DHT22;1661;53.572;10.174;2024-01-25T02:43:22;7.90;86.30
3298;DHT22;1661;53.572;10.174;2024-01-25T02:45:49;8.00;86.30
3298;DHT22;1661;53.572;10.174;2024-01-25T02:48:16;7.90;86.40
3298;DHT22;1661;53.572;10.174;2024-01-25T02:50:45;7.90;86.50
3298;DHT22;1661;53.572;10.174;2024-01-25T02:53:14;8.00;86.20
3298;DHT22;1661;53.572;10.174;2024-01-25T02:55:40;8.00;86.30
3298;DHT22;1661;53.572;10.174;2024-01-25T02:58:08;8.00;86.40
3298;DHT22;1661;53.572;10.174;2024-01-25T03:00:35;8.00;86.30
3298;DHT22;1661;53.572;10.174;2024-01-25T03:03:02;8.00;86.50
3298;DHT22;1661;53.572;10.174;2024-01-25T03:05:29;8.00;86.40
3298;DHT22;1661;53.572;10.174;2024-01-25T03:08:03;8.00;86.60
3298;DHT22;1661;53.572;10.174;2024-01-25T03:10:30;8.00;86.80
3298;DHT22;1661;53.572;10.174;2024-01-25T03:12:57;8.00;86.60
3298;DHT22;1661;53.572;10.174;2024-01-25T03:15:25;8.00;86.80
3298;DHT22;1661;53.572;10.174;2024-01-25T03:17:52;8.00;86.70
3298;DHT22;1661;53.572;10.174;2024-01-25T03:20:18;8.00;86.70
3298;DHT22;1661;53.572;10.174;2024-01-25T03:22:45;8.00;86.40
3298;DHT22;1661;53.572;10.174;2024-01-25T03:25:12;8.10;86.20
3298;DHT22;1661;53.572;10.174;2024-01-25T03:27:42;8.00;86.20
3298;DHT22;1661;53.572;10.174;2024-01-25T03:30:10;8.00;86.20
3298;DHT22;1661;53.572;10.174;2024-01-25T03:32:38;8.00;86.10
3298;DHT22;1661;53.572;10.174;2024-01-25T03:35:05;8.10;86.20
3298;DHT22;1661;53.572;10.174;2024-01-25T03:37:32;8.10;85.80
3298;DHT22;1661;53.572;10.174;2024-01-25T03:39:59;8.00;85.70
3298;DHT22;1661;53.572;10.174;2024-01-25T03:42:26;8.00;86.20
3298;DHT22;1661;53.572;10.174;2024-01-25T03:44:52;8.00;86.20
3298;DHT22;1661;53.572;10.174;2024-01-25T03:47:19;8.10;86.00
3298;DHT22;1661;53.572;10.174;2024-01-25T03:49:47;8.00;86.10
3298;DHT22;1661;53.572;10.174;2024-01-25T03:52:14;7.90;86.30
3298;DHT22;1661;53.572;10.174;2024-01-25T03:54:41;8.00;86.60
3298;DHT22;1661;53.572;10.174;2024-01-25T03:57:08;8.00;86.40
3298;DHT22;1661;53.572;10.174;2024-01-25T03:59:34;8.00;86.60
3298;DHT22;1661;53.572;10.174;2024-01-25T04:02:01;7.80;87.10
3298;DHT22;1661;53.572;10.174;2024-01-25T04:04:28;7.90;87.20
3298;DHT22;1661;53.572;10.174;2024-01-25T04:06:58;7.80;87.40
3298;DHT22;1661;53.572;10.174;2024-01-25T04:09:25;7.90;87.30
3298;DHT22;1661;53.572;10.174;2024-01-25T04:11:54;7.90;87.10
3298;DHT22;1661;53.572;10.174;2024-01-25T04:14:21;7.90;87.10
3298;DHT22;1661;53.572;10.174;2024-01-25T04:16:49;8.00;87.00
3298;DHT22;1661;53.572;10.174;2024-01-25T04:19:18;8.00;86.90
3298;DHT22;1661;53.572;10.174;2024-01-25T04:21:45;8.00;86.80
3298;DHT22;1661;53.572;10.174;2024-01-25T04:24:13;8.10;86.60
3298;DHT22;1661;53.572;10.174;2024-01-25T04:26:40;8.10;86.30
3298;DHT22;1661;53.572;10.174;2024-01-25T04:29:07;8.20;86.30
3298;DHT22;1661;53.572;10.174;2024-01-25T04:31:42;8.20;86.20
3298;DHT22;1661;53.572;10.174;2024-01-25T04:34:09;8.10;86.10
3298;DHT22;1661;53.572;10.174;2024-01-25T04:36:36;8.10;86.20
3298;DHT22;1661;53.572;10.174;2024-01-25T04:39:03;8.00;86.40
3298;DHT22;1661;53.572;10.174;2024-01-25T04:41:34;8.10;86.60
3298;DHT22;1661;53.572;10.174;2024-01-25T04:44:00;7.90;86.50
3298;DHT22;1661;53.572;10.174;2024-01-25T04:46:30;7.90;86.80
3298;DHT22;1661;53.572;10.174;2024-01-25T04:49:01;8.00;86.80
3298;DHT22;1661;53.572;10.174;2024-01-25T04:51:30;8.10;86.30
3298;DHT22;1661;53.572;10.174;2024-01-25T04:53:57;8.10;86.20
3298;DHT22;1661;53.572;10.174;2024-01-25T04:56:23;8.10;86.20
3298;DHT22;1661;53.572;10.174;2024-01-25T04:58:51;7.90;86.60
3298;DHT22;1661;53.572;10.174;2024-01-25T05:01:18;7.80;87.30
3298;DHT22;1661;53.572;10.174;2024-01-25T05:03:48;7.80;87.10
3298;DHT22;1661;53.572;10.174;2024-01-25T05:06:15;7.80;87.40
3298;DHT22;1661;53.572;10.174;2024-01-25T05:08:42;7.80;87.40
3298;DHT22;1661;53.572;10.174;2024-01-25T05:11:11;7.90;87.20
3298;DHT22;1661;53.572;10.174;2024-01-25T05:13:40;7.90;87.20
3298;DHT22;1661;53.572;10.174;2024-01-25T05:16:11;7.90;87.00
3298;DHT22;1661;53.572;10.174;2024-01-25T05:18:38;8.00;87.00
3298;DHT22;1661;53.572;10.174;2024-01-25T05:21:05;7.90;86.80
3298;DHT22;1661;53.572;10.174;2024-01-25T05:23:34;7.90;87.10
3298;DHT22;1661;53.572;10.174;2024-01-25T05:26:01;7.80;87.40
3298;DHT22;1661;53.572;10.174;2024-01-25T05:28:28;7.80;87.40
3298;DHT22;1661;53.572;10.174;2024-01-25T05:30:55;7.80;87.80
3298;DHT22;1661;53.572;10.174;2024-01-25T05:33:23;7.80;87.50
3298;DHT22;1661;53.572;10.174;2024-01-25T05:35:50;7.70;87.30
3298;DHT22;1661;53.572;10.174;2024-01-25T05:38:16;7.90;87.40
3298;DHT22;1661;53.572;10.174;2024-01-25T05:40:43;7.80;87.40
3298;DHT22;1661;53.572;10.174;2024-01-25T05:43:12;7.90;87.20
3298;DHT22;1661;53.572;10.174;2024-01-25T05:45:39;7.90;87.00
3298;DHT22;1661;53.572;10.174;2024-01-25T05:48:06;7.90;87.20
3298;DHT22;1661;53.572;10.174;2024-01-25T05:50:34;7.90;87.30
3298;DHT22;1661;53.572;10.174;2024-01-25T05:53:01;7.90;87.30
3298;DHT22;1661;53.572;10.174;2024-01-25T05:55:28;7.90;87.20
3298;DHT22;1661;53.572;10.174;2024-01-25T05:57:55;7.90;87.10
3298;DHT22;1661;53.572;10.174;2024-01-25T06:00:22;7.90;87.20
3298;DHT22;1661;53.572;10.174;2024-01-25T06:02:51;7.90;87.30
3298;DHT22;1661;53.572;10.174;2024-01-25T06:05:18;7.90;87.20
3298;DHT22;1661;53.572;10.174;2024-01-25T06:07:46;8.00;87.10
3298;DHT22;1661;53.572;10.174;2024-01-25T06:10:14;8.10;86.90
3298;DHT22;1661;53.572;10.174;2024-01-25T06:12:41;8.10;86.50
3298;DHT22;1661;53.572;10.174;2024-01-25T06:15:08;8.10;86.50
3298;DHT22;1661;53.572;10.174;2024-01-25T06:17:35;8.00;86.60
3298;DHT22;1661;53.572;10.174;2024-01-25T06:20:02;8.00;86.70
3298;DHT22;1661;53.572;10.174;2024-01-25T06:22:30;8.00;86.70
3298;DHT22;1661;53.572;10.174;2024-01-25T06:25:01;8.00;86.70
3298;DHT22;1661;53.572;10.174;2024-01-25T06:27:29;8.10;86.60
3298;DHT22;1661;53.572;10.174;2024-01-25T06:29:56;8.10;86.60
3298;DHT22;1661;53.572;10.174;2024-01-25T06:32:24;8.00;86.80
3298;DHT22;1661;53.572;10.174;2024-01-25T06:34:51;7.90;87.00
3298;DHT22;1661;53.572;10.174;2024-01-25T06:37:18;7.90;87.20
3298;DHT22;1661;53.572;10.174;2024-01-25T06:39:48;7.90;87.40
3298;DHT22;1661;53.572;10.174;2024-01-25T06:42:18;7.80;87.60
3298;DHT22;1661;53.572;10.174;2024-01-25T06:44:45;7.90;87.40
3298;DHT22;1661;53.572;10.174;2024-01-25T06:47:12;7.90;87.30
3298;DHT22;1661;53.572;10.174;2024-01-25T06:49:39;7.90;87.50
3298;DHT22;1661;53.572;10.174;2024-01-25T06:52:06;7.70;87.60
3298;DHT22;1661;53.572;10.174;2024-01-25T06:54:34;7.80;87.70
3298;DHT22;1661;53.572;10.174;2024-01-25T06:57:00;7.80;87.60
3298;DHT22;1661;53.572;10.174;2024-01-25T06:59:29;7.70;87.80
3298;DHT22;1661;53.572;10.174;2024-01-25T07:01:56;7.70;88.00
3298;DHT22;1661;53.572;10.174;2024-01-25T07:04:23;7.70;88.10
3298;DHT22;1661;53.572;10.174;2024-01-25T07:06:50;7.70;88.10
3298;DHT22;1661;53.572;10.174;2024-01-25T07:09:17;7.70;88.00
3298;DHT22;1661;53.572;10.174;2024-01-25T07:11:47;7.80;87.60
3298;DHT22;1661;53.572;10.174;2024-01-25T07:14:14;7.80;87.70
3298;DHT22;1661;53.572;10.174;2024-01-25T07:16:42;7.70;87.40
3298;DHT22;1661;53.572;10.174;2024-01-25T07:19:09;7.70;87.90
3298;DHT22;1661;53.572;10.174;2024-01-25T07:21:39;7.70;88.10
3298;DHT22;1661;53.572;10.174;2024-01-25T07:24:06;7.70;88.10
3298;DHT22;1661;53.572;10.174;2024-01-25T07:26:33;7.70;88.00
3298;DHT22;1661;53.572;10.174;2024-01-25T07:29:02;7.80;88.00
3298;DHT22;1661;53.572;10.174;2024-01-25T07:31:28;7.90;87.80
3298;DHT22;1661;53.572;10.174;2024-01-25T07:33:56;7.70;88.10
3298;DHT22;1661;53.572;10.174;2024-01-25T07:36:25;7.80;87.90
3298;DHT22;1661;53.572;10.174;2024-01-25T07:38:52;7.80;87.90
3298;DHT22;1661;53.572;10.174;2024-01-25T07:41:19;7.90;87.40
3298;DHT22;1661;53.572;10.174;2024-01-25T07:43:46;7.80;88.10
3298;DHT22;1661;53.572;10.174;2024-01-25T07:46:12;7.70;88.00
3298;DHT22;1661;53.572;10.174;2024-01-25T07:48:40;7.80;88.00
3298;DHT22;1661;53.572;10.174;2024-01-25T07:51:12;7.70;87.80
3298;DHT22;1661;53.572;10.174;2024-01-25T07:53:39;7.80;87.90
3298;DHT22;1661;53.572;10.174;2024-01-25T07:56:06;7.70;87.80
3298;DHT22;1661;53.572;10.174;2024-01-25T07:58:35;7.80;87.70
3298;DHT22;1661;53.572;10.174;2024-01-25T08:01:03;7.80;87.90
3298;DHT22;1661;53.572;10.174;2024-01-25T08:03:30;7.80;87.90
3298;DHT22;1661;53.572;10.174;2024-01-25T08:06:01;7.80;87.70
3298;DHT22;1661;53.572;10.174;2024-01-25T08:08:29;7.70;88.00
3298;DHT22;1661;53.572;10.174;2024-01-25T08:10:56;7.70;88.20
3298;DHT22;1661;53.572;10.174;2024-01-25T08:13:23;7.70;88.10
3298;DHT22;1661;53.572;10.174;2024-01-25T08:15:51;7.80;88.20
3298;DHT22;1661;53.572;10.174;2024-01-25T08:18:18;7.80;88.10
3298;DHT22;1661;53.572;10.174;2024-01-25T08:20:48;7.80;88.20
3298;DHT22;1661;53.572;10.174;2024-01-25T08:23:15;7.90;88.10
3298;DHT22;1661;53.572;10.174;2024-01-25T08:25:45;7.80;88.10
3298;DHT22;1661;53.572;10.174;2024-01-25T08:28:12;7.90;88.10
3298;DHT22;1661;53.572;10.174;2024-01-25T08:30:39;7.90;88.10
3298;DHT22;1661;53.572;10.174;2024-01-25T08:33:08;7.80;88.60
3298;DHT22;1661;53.572;10.174;2024-01-25T08:35:34;7.80;88.80
3298;DHT22;1661;53.572;10.174;2024-01-25T08:38:01;8.00;88.70
3298;DHT22;1661;53.572;10.174;2024-01-25T08:40:28;8.00;88.40
3298;DHT22;1661;53.572;10.174;2024-01-25T08:42:57;8.00;88.40
3298;DHT22;1661;53.572;10.174;2024-01-25T08:45:23;8.00;88.40
3298;DHT22;1661;53.572;10.174;2024-01-25T08:47:59;8.00;88.30
3298;DHT22;1661;53.572;10.174;2024-01-25T08:50:26;8.10;88.20
3298;DHT22;1661;53.572;10.174;2024-01-25T08:52:56;8.10;88.00
3298;DHT22;1661;53.572;10.174;2024-01-25T08:55:22;8.10;88.10
3298;DHT22;1661;53.572;10.174;2024-01-25T08:57:49;8.20;87.80
3298;DHT22;1661;53.572;10.174;2024-01-25T09:00:18;8.10;87.60
3298;DHT22;1661;53.572;10.174;2024-01-25T09:02:45;8.00;88.20
3298;DHT22;1661;53.572;10.174;2024-01-25T09:05:11;8.00;88.20
3298;DHT22;1661;53.572;10.174;2024-01-25T09:07:38;8.00;88.20
3298;DHT22;1661;53.572;10.174;2024-01-25T09:10:06;8.10;87.90
3298;DHT22;1661;53.572;10.174;2024-01-25T09:12:33;8.10;87.60
3298;DHT22;1661;53.572;10.174;2024-01-25T09:15:03;8.20;87.60
3298;DHT22;1661;53.572;10.174;2024-01-25T09:17:32;8.10;87.30
3298;DHT22;1661;53.572;10.174;2024-01-25T09:19:58;8.10;87.40
3298;DHT22;1661;53.572;10.174;2024-01-25T09:22:28;8.20;87.00
3298;DHT22;1661;53.572;10.174;2024-01-25T09:24:55;8.20;86.90
3298;DHT22;1661;53.572;10.174;2024-01-25T09:27:25;8.20;86.80
3298;DHT22;1661;53.572;10.174;2024-01-25T09:29:54;8.20;86.70
3298;DHT22;1661;53.572;10.174;2024-01-25T09:32:21;8.00;87.30
3298;DHT22;1661;53.572;10.174;2024-01-25T09:34:49;8.00;87.40
3298;DHT22;1661;53.572;10.174;2024-01-25T09:37:16;8.10;87.70
3298;DHT22;1661;53.572;10.174;2024-01-25T09:39:45;8.20;87.40
3298;DHT22;1661;53.572;10.174;2024-01-25T09:42:12;8.30;86.80
3298;DHT22;1661;53.572;10.174;2024-01-25T09:44:40;8.30;86.70
3298;DHT22;1661;53.572;10.174;2024-01-25T09:47:08;8.30;87.10
3298;DHT22;1661;53.572;10.174;2024-01-25T09:49:38;8.30;87.00
3298;DHT22;1661;53.572;10.174;2024-01-25T09:52:06;8.30;86.90
3298;DHT22;1661;53.572;10.174;2024-01-25T09:54:36;8.40;86.90
3298;DHT22;1661;53.572;10.174;2024-01-25T09:57:06;8.40;86.60
3298;DHT22;1661;53.572;10.174;2024-01-25T09:59:33;8.40;86.90
3298;DHT22;1661;53.572;10.174;2024-01-25T10:02:01;8.40;86.70
3298;DHT22;1661;53.572;10.174;2024-01-25T10:04:28;8.40;86.80
3298;DHT22;1661;53.572;10.174;2024-01-25T10:06:55;8.40;86.60
3298;DHT22;1661;53.572;10.174;2024-01-25T10:09:23;8.40;86.50
3298;DHT22;1661;53.572;10.174;2024-01-25T10:11:50;8.50;86.30
3298;DHT22;1661;53.572;10.174;2024-01-25T10:14:17;8.50;86.00
3298;DHT22;1661;53.572;10.174;2024-01-25T10:16:45;8.60;86.20
3298;DHT22;1661;53.572;10.174;2024-01-25T10:19:17;8.60;85.70
3298;DHT22;1661;53.572;10.174;2024-01-25T10:21:49;8.60;85.60
3298;DHT22;1661;53.572;10.174;2024-01-25T10:24:16;8.60;85.50
3298;DHT22;1661;53.572;10.174;2024-01-25T10:26:48;8.60;85.30
3298;DHT22;1661;53.572;10.174;2024-01-25T10:29:15;8.70;85.30
3298;DHT22;1661;53.572;10.174;2024-01-25T10:31:45;8.60;85.20
3298;DHT22;1661;53.572;10.174;2024-01-25T10:34:13;8.70;85.30
3298;DHT22;1661;53.572;10.174;2024-01-25T10:36:41;8.70;85.00
3298;DHT22;1661;53.572;10.174;2024-01-25T10:39:09;8.70;85.10
3298;DHT22;1661;53.572;10.174;2024-01-25T10:41:36;8.60;85.50
3298;DHT22;1661;53.572;10.174;2024-01-25T10:44:04;8.70;85.50
3298;DHT22;1661;53.572;10.174;2024-01-25T10:46:32;8.70;85.30
3298;DHT22;1661;53.572;10.174;2024-01-25T10:49:00;8.60;85.00
3298;DHT22;1661;53.572;10.174;2024-01-25T10:51:29;8.50;85.60
3298;DHT22;1661;53.572;10.174;2024-01-25T10:53:56;8.40;86.10
3298;DHT22;1661;53.572;10.174;2024-01-25T10:56:24;8.40;86.30
3298;DHT22;1661;53.572;10.174;2024-01-25T10:58:50;8.50;86.00
3298;DHT22;1661;53.572;10.174;2024-01-25T11:01:22;8.50;86.10
3298;DHT22;1661;53.572;10.174;2024-01-25T11:03:49;8.50;85.60
3298;DHT22;1661;53.572;10.174;2024-01-25T11:06:18;8.50;85.40
3298;DHT22;1661;53.572;10.174;2024-01-25T11:08:46;8.50;85.60
3298;DHT22;1661;53.572;10.174;2024-01-25T11:11:15;8.60;85.60
3298;DHT22;1661;53.572;10.174;2024-01-25T11:13:43;8.60;85.30
3298;DHT22;1661;53.572;10.174;2024-01-25T11:16:14;8.50;84.70
3298;DHT22;1661;53.572;10.174;2024-01-25T11:18:52;8.50;85.20
3298;DHT22;1661;53.572;10.174;2024-01-25T11:21:26;8.40;85.30
3298;DHT22;1661;53.572;10.174;2024-01-25T11:24:03;8.60;85.50
3298;DHT22;1661;53.572;10.174;2024-01-25T11:26:32;8.60;84.90
3298;DHT22;1661;53.572;10.174;2024-01-25T11:29:00;8.70;84.10
3298;DHT22;1661;53.572;10.174;2024-01-25T11:31:27;8.60;84.20
3298;DHT22;1661;53.572;10.174;2024-01-25T11:33:58;8.60;83.60
3298;DHT22;1661;53.572;10.174;2024-01-25T11:36:25;8.50;84.00
3298;DHT22;1661;53.572;10.174;2024-01-25T11:38:52;8.60;83.80
3298;DHT22;1661;53.572;10.174;2024-01-25T11:41:19;8.50;83.20
3298;DHT22;1661;53.572;10.174;2024-01-25T11:43:48;8.60;83.80
3298;DHT22;1661;53.572;10.174;2024-01-25T11:46:16;8.60;83.10
3298;DHT22;1661;53.572;10.174;2024-01-25T11:48:43;8.70;83.20
3298;DHT22;1661;53.572;10.174;2024-01-25T11:51:11;8.70;83.10
3298;DHT22;1661;53.572;10.174;2024-01-25T11:53:38;8.70;83.20
3298;DHT22;1661;53.572;10.174;2024-01-25T11:56:10;8.70;83.20
3298;DHT22;1661;53.572;10.174;2024-01-25T11:58:42;8.80;83.30
3298;DHT22;1661;53.572;10.174;2024-01-25T12:01:09;8.80;83.30
3298;DHT22;1661;53.572;10.174;2024-01-25T12:03:36;8.90;83.20
3298;DHT22;1661;53.572;10.174;2024-01-25T12:06:04;9.00;82.80
3298;DHT22;1661;53.572;10.174;2024-01-25T12:08:33;9.10;82.70
3298;DHT22;1661;53.572;10.174;2024-01-25T12:11:04;9.20;82.60
3298;DHT22;1661;53.572;10.174;2024-01-25T12:13:34;9.20;82.30
3298;DHT22;1661;53.572;10.174;2024-01-25T12:16:02;9.10;82.10
3298;DHT22;1661;53.572;10.174;2024-01-25T12:18:30;9.00;82.50
3298;DHT22;1661;53.572;10.174;2024-01-25T12:20:58;9.10;82.70
3298;DHT22;1661;53.572;10.174;2024-01-25T12:23:34;9.20;82.60
3298;DHT22;1661;53.572;10.174;2024-01-25T12:26:02;9.20;82.50
3298;DHT22;1661;53.572;10.174;2024-01-25T12:28:30;9.20;82.50
3298;DHT22;1661;53.572;10.174;2024-01-25T12:31:00;9.20;82.40
3298;DHT22;1661;53.572;10.174;2024-01-25T12:33:32;9.10;82.50
3298;DHT22;1661;53.572;10.174;2024-01-25T12:35:59;9.00;82.90
3298;DHT22;1661;53.572;10.174;2024-01-25T12:38:26;9.10;83.10
3298;DHT22;1661;53.572;10.174;2024-01-25T12:40:58;9.10;83.10
3298;DHT22;1661;53.572;10.174;2024-01-25T12:43:25;9.20;83.10
3298;DHT22;1661;53.572;10.174;2024-01-25T12:45:53;9.20;83.10
3298;DHT22;1661;53.572;10.174;2024-01-25T12:48:20;9.20;82.80
3298;DHT22;1661;53.572;10.174;2024-01-25T12:50:47;9.10;83.10
3298;DHT22;1661;53.572;10.174;2024-01-25T12:53:20;9.20;83.20
3298;DHT22;1661;53.572;10.174;2024-01-25T12:55:46;9.10;82.40
3298;DHT22;1661;53.572;10.174;2024-01-25T12:58:14;9.10;82.80
3298;DHT22;1661;53.572;10.174;2024-01-25T13:00:43;9.00;82.70
3298;DHT22;1661;53.572;10.174;2024-01-25T13:03:11;8.90;82.90
3298;DHT22;1661;53.572;10.174;2024-01-25T13:05:38;8.80;83.20
3298;DHT22;1661;53.572;10.174;2024-01-25T13:08:07;8.80;83.60
3298;DHT22;1661;53.572;10.174;2024-01-25T13:10:33;8.90;83.60
3298;DHT22;1661;53.572;10.174;2024-01-25T13:13:00;9.00;83.40
3298;DHT22;1661;53.572;10.174;2024-01-25T13:15:28;9.10;82.90
3298;DHT22;1661;53.572;10.174;2024-01-25T13:17:55;9.10;82.50
3298;DHT22;1661;53.572;10.174;2024-01-25T13:20:22;9.20;82.60
3298;DHT22;1661;53.572;10.174;2024-01-25T13:22:49;9.10;82.00
3298;DHT22;1661;53.572;10.174;2024-01-25T13:25:16;9.10;82.50
3298;DHT22;1661;53.572;10.174;2024-01-25T13:27:42;9.00;82.50
3298;DHT22;1661;53.572;10.174;2024-01-25T13:30:10;8.90;82.60
3298;DHT22;1661;53.572;10.174;2024-01-25T13:32:40;8.80;82.70
3298;DHT22;1661;53.572;10.174;2024-01-25T13:35:07;8.80;83.30
3298;DHT22;1661;53.572;10.174;2024-01-25T13:37:34;8.90;82.80
3298;DHT22;1661;53.572;10.174;2024-01-25T13:40:04;8.90;82.80
3298;DHT22;1661;53.572;10.174;2024-01-25T13:42:31;8.90;82.60
3298;DHT22;1661;53.572;10.174;2024-01-25T13:44:58;8.80;82.80
3298;DHT22;1661;53.572;10.174;2024-01-25T13:47:25;8.70;83.10
3298;DHT22;1661;53.572;10.174;2024-01-25T13:49:53;8.70;83.30
3298;DHT22;1661;53.572;10.174;2024-01-25T13:52:20;8.80;83.20
3298;DHT22;1661;53.572;10.174;2024-01-25T13:54:47;8.80;82.90
3298;DHT22;1661;53.572;10.174;2024-01-25T13:57:15;8.70;83.00
3298;DHT22;1661;53.572;10.174;2024-01-25T13:59:41;8.80;83.10
3298;DHT22;1661;53.572;10.174;2024-01-25T14:02:08;8.80;83.10
3298;DHT22;1661;53.572;10.174;2024-01-25T14:04:35;8.90;83.10
3298;DHT22;1661;53.572;10.174;2024-01-25T14:07:03;9.00;82.50
3298;DHT22;1661;53.572;10.174;2024-01-25T14:09:31;8.90;82.60
3298;DHT22;1661;53.572;10.174;2024-01-25T14:11:57;9.10;82.60
3298;DHT22;1661;53.572;10.174;2024-01-25T14:14:24;9.20;82.50
3298;DHT22;1661;53.572;10.174;2024-01-25T14:16:51;9.30;81.80
3298;DHT22;1661;53.572;10.174;2024-01-25T14:19:18;9.20;81.90
3298;DHT22;1661;53.572;10.174;2024-01-25T14:21:46;9.20;81.60
3298;DHT22;1661;53.572;10.174;2024-01-25T14:24:14;9.20;82.10
3298;DHT22;1661;53.572;10.174;2024-01-25T14:26:41;9.30;81.90
3298;DHT22;1661;53.572;10.174;2024-01-25T14:29:11;9.40;81.90
3298;DHT22;1661;53.572;10.174;2024-01-25T14:31:38;9.40;81.50
3298;DHT22;1661;53.572;10.174;2024-01-25T14:34:06;9.50;81.30
3298;DHT22;1661;53.572;10.174;2024-01-25T14:36:36;9.60;80.90
3298;DHT22;1661;53.572;10.174;2024-01-25T14:39:03;9.60;80.80
3298;DHT22;1661;53.572;10.174;2024-01-25T14:41:31;9.60;80.70
3298;DHT22;1661;53.572;10.174;2024-01-25T14:44:01;9.60;81.10
3298;DHT22;1661;53.572;10.174;2024-01-25T14:46:31;9.70;80.60
3298;DHT22;1661;53.572;10.174;2024-01-25T14:49:00;9.70;80.50
3298;DHT22;1661;53.572;10.174;2024-01-25T14:51:27;9.70;80.90
3298;DHT22;1661;53.572;10.174;2024-01-25T14:53:54;9.70;80.70
3298;DHT22;1661;53.572;10.174;2024-01-25T14:56:20;9.80;80.60
3298;DHT22;1661;53.572;10.174;2024-01-25T14:58:49;9.80;80.20
3298;DHT22;1661;53.572;10.174;2024-01-25T15:01:16;9.70;80.40
3298;DHT22;1661;53.572;10.174;2024-01-25T15:03:44;9.60;80.90
3298;DHT22;1661;53.572;10.174;2024-01-25T15:06:11;9.60;80.90
3298;DHT22;1661;53.572;10.174;2024-01-25T15:08:38;9.60;81.10
3298;DHT22;1661;53.572;10.174;2024-01-25T15:11:09;9.70;81.30
3298;DHT22;1661;53.572;10.174;2024-01-25T15:13:36;9.70;81.20
3298;DHT22;1661;53.572;10.174;2024-01-25T15:16:10;9.80;80.90
3298;DHT22;1661;53.572;10.174;2024-01-25T15:18:36;9.90;80.70
3298;DHT22;1661;53.572;10.174;2024-01-25T15:21:04;9.90;80.30
3298;DHT22;1661;53.572;10.174;2024-01-25T15:23:31;9.80;80.40
3298;DHT22;1661;53.572;10.174;2024-01-25T15:25:58;9.50;80.40
3298;DHT22;1661;53.572;10.174;2024-01-25T15:28:24;9.30;80.00
3298;DHT22;1661;53.572;10.174;2024-01-25T15:30:51;9.30;80.10
3298;DHT22;1661;53.572;10.174;2024-01-25T15:33:19;9.40;79.50
3298;DHT22;1661;53.572;10.174;2024-01-25T15:35:46;9.10;78.50
3298;DHT22;1661;53.572;10.174;2024-01-25T15:38:13;9.10;79.00
3298;DHT22;1661;53.572;10.174;2024-01-25T15:40:43;9.20;79.20
3298;DHT22;1661;53.572;10.174;2024-01-25T15:43:10;9.30;79.10
3298;DHT22;1661;53.572;10.174;2024-01-25T15:45:37;9.30;78.80
3298;DHT22;1661;53.572;10.174;2024-01-25T15:48:04;9.40;79.00
3298;DHT22;1661;53.572;10.174;2024-01-25T15:50:32;9.40;78.80
3298;DHT22;1661;53.572;10.174;2024-01-25T15:52:59;9.40;78.80
3298;DHT22;1661;53.572;10.174;2024-01-25T15:55:26;9.50;78.70
3298;DHT22;1661;53.572;10.174;2024-01-25T15:57:52;9.50;78.80
3298;DHT22;1661;53.572;10.174;2024-01-25T16:00:19;9.50;78.70
3298;DHT22;1661;53.572;10.174;2024-01-25T16:02:49;9.60;78.80
3298;DHT22;1661;53.572;10.174;2024-01-25T16:05:20;9.60;78.80